sensor_id;sensor_type;location;lat;lon;timestamp;pressure;altitude;pressure_sealevel;temperature;humidity
29879;BME280;16752;53.364;-1.488;2022-11-27T00:01:59;99833.22;;;18.41;50.99
29879;BME280;16752;53.364;-1.488;2022-11-27T00:04:24;99745.84;;;17.82;51.83
29879;BME280;16752;53.364;-1.488;2022-11-27T00:06:50;99759.31;;;18.54;49.62
29879;BME280;16752;53.364;-1.488;2022-11-27T00:09:25;99712.00;;;16.66;54.39
29879;BME280;16752;53.364;-1.488;2022-11-27T00:11:55;99734.09;;;18.09;50.85
29879;BME280;16752;53.364;-1.488;2022-11-27T00:14:28;99854.81;;;19.19;50.06
29879;BME280;16752;53.364;-1.488;2022-11-27T00:16:54;99690.84;;;17.84;51.03
29879;BME280;16752;53.364;-1.488;2022-11-27T00:19:27;99755.44;;;17.83;51.89
29879;BME280;16752;53.364;-1.488;2022-11-27T00:21:53;99847.19;;;19.08;50.56
29879;BME280;16752;53.364;-1.488;2022-11-27T00:24:19;99742.53;;;18.61;50.63
29879;BME280;16752;53.364;-1.488;2022-11-27T00:26:44;99691.03;;;18.31;50.46
29879;BME280;16752;53.364;-1.488;2022-11-27T00:29:11;99843.47;;;18.11;53.13
29879;BME280;16752;53.364;-1.488;2022-11-27T00:31:36;99838.75;;;18.96;50.49
29879;BME280;16752;53.364;-1.488;2022-11-27T00:34:04;99750.19;;;18.24;51.10
29879;BME280;16752;53.364;-1.488;2022-11-27T00:36:35;99707.13;;;17.47;52.40
29879;BME280;16752;53.364;-1.488;2022-11-27T00:39:02;99866.59;;;19.24;50.01
29879;BME280;16752;53.364;-1.488;2022-11-27T00:41:29;99755.50;;;18.89;49.11
29879;BME280;16752;53.364;-1.488;2022-11-27T00:43:57;99875.44;;;19.09;50.44
29879;BME280;16752;53.364;-1.488;2022-11-27T00:46:29;99734.97;;;17.59;52.84
29879;BME280;16752;53.364;-1.488;2022-11-27T00:49:14;99593.75;;;16.76;53.60
29879;BME280;16752;53.364;-1.488;2022-11-27T00:51:45;99755.63;;;17.48;54.33
29879;BME280;16752;53.364;-1.488;2022-11-27T00:54:11;99702.63;;;17.90;51.90
29879;BME280;16752;53.364;-1.488;2022-11-27T00:56:38;99771.56;;;18.96;49.77
29879;BME280;16752;53.364;-1.488;2022-11-27T00:59:05;99750.19;;;18.32;51.19
29879;BME280;16752;53.364;-1.488;2022-11-27T01:01:34;99663.72;;;18.07;50.85
29879;BME280;16752;53.364;-1.488;2022-11-27T01:04:16;99822.31;;;18.44;52.54
29879;BME280;16752;53.364;-1.488;2022-11-27T01:06:42;99770.88;;;18.12;52.45
29879;BME280;16752;53.364;-1.488;2022-11-27T01:09:13;99820.59;;;18.02;52.51
29879;BME280;16752;53.364;-1.488;2022-11-27T01:11:42;99739.25;;;18.59;50.95
29879;BME280;16752;53.364;-1.488;2022-11-27T01:14:14;99808.91;;;19.49;49.74
29879;BME280;16752;53.364;-1.488;2022-11-27T01:16:40;99714.16;;;18.95;49.67
29879;BME280;16752;53.364;-1.488;2022-11-27T01:19:06;99774.72;;;19.46;48.88
29879;BME280;16752;53.364;-1.488;2022-11-27T01:21:33;99662.25;;;18.92;48.74
29879;BME280;16752;53.364;-1.488;2022-11-27T01:24:00;99786.16;;;18.26;52.25
29879;BME280;16752;53.364;-1.488;2022-11-27T01:26:28;99704.06;;;17.68;52.55
29879;BME280;16752;53.364;-1.488;2022-11-27T01:28:55;99755.97;;;18.84;50.65
29879;BME280;16752;53.364;-1.488;2022-11-27T01:31:25;99830.44;;;19.79;49.43
29879;BME280;16752;53.364;-1.488;2022-11-27T01:33:53;99779.66;;;19.02;49.67
29879;BME280;16752;53.364;-1.488;2022-11-27T01:36:23;99783.09;;;19.27;49.62
29879;BME280;16752;53.364;-1.488;2022-11-27T01:38:49;99743.38;;;18.95;50.22
29879;BME280;16752;53.364;-1.488;2022-11-27T01:41:18;99808.00;;;19.26;50.51
29879;BME280;16752;53.364;-1.488;2022-11-27T01:46:47;99729.75;;;18.98;50.24
29879;BME280;16752;53.364;-1.488;2022-11-27T01:49:43;99818.75;;;19.88;49.29
29879;BME280;16752;53.364;-1.488;2022-11-27T01:52:16;99813.44;;;19.88;49.26
29879;BME280;16752;53.364;-1.488;2022-11-27T01:54:56;99820.41;;;20.20;48.13
29879;BME280;16752;53.364;-1.488;2022-11-27T01:57:30;99780.31;;;19.68;49.04
29879;BME280;16752;53.364;-1.488;2022-11-27T01:59:58;99773.63;;;19.72;48.79
29879;BME280;16752;53.364;-1.488;2022-11-27T02:02:25;99784.50;;;19.62;49.19
29879;BME280;16752;53.364;-1.488;2022-11-27T02:04:52;99754.00;;;19.42;49.40
29879;BME280;16752;53.364;-1.488;2022-11-27T02:07:22;99730.97;;;18.54;50.88
29879;BME280;16752;53.364;-1.488;2022-11-27T02:09:51;99762.94;;;19.57;49.15
29879;BME280;16752;53.364;-1.488;2022-11-27T02:15:41;99825.84;;;20.27;47.93
29879;BME280;16752;53.364;-1.488;2022-11-27T02:20:59;99751.72;;;19.31;49.48
29879;BME280;16752;53.364;-1.488;2022-11-27T02:23:46;99836.84;;;19.37;50.48
29879;BME280;16752;53.364;-1.488;2022-11-27T02:29:15;99825.19;;;20.25;48.04
29879;BME280;16752;53.364;-1.488;2022-11-27T02:32:33;99830.41;;;20.18;48.74
29879;BME280;16752;53.364;-1.488;2022-11-27T02:38:26;99764.84;;;19.32;49.45
29879;BME280;16752;53.364;-1.488;2022-11-27T02:41:47;99833.44;;;19.68;49.79
29879;BME280;16752;53.364;-1.488;2022-11-27T02:44:06;99771.91;;;18.92;50.88
29879;BME280;16752;53.364;-1.488;2022-11-27T02:46:43;99837.66;;;19.93;49.72
29879;BME280;16752;53.364;-1.488;2022-11-27T02:49:18;99754.22;;;19.24;49.97
29879;BME280;16752;53.364;-1.488;2022-11-27T02:51:54;99837.22;;;18.53;53.23
29879;BME280;16752;53.364;-1.488;2022-11-27T02:54:29;99808.03;;;18.61;52.58
29879;BME280;16752;53.364;-1.488;2022-11-27T02:57:01;99755.19;;;18.68;51.68
29879;BME280;16752;53.364;-1.488;2022-11-27T02:59:53;99691.31;;;18.77;50.67
29879;BME280;16752;53.364;-1.488;2022-11-27T03:02:42;99697.22;;;19.43;48.58
29879;BME280;16752;53.364;-1.488;2022-11-27T03:05:19;99832.34;;;19.93;49.36
29879;BME280;16752;53.364;-1.488;2022-11-27T03:08:29;99811.69;;;19.17;51.35
29879;BME280;16752;53.364;-1.488;2022-11-27T03:11:08;99709.22;;;18.83;50.70
29879;BME280;16752;53.364;-1.488;2022-11-27T03:14:05;99763.66;;;19.35;49.67
29879;BME280;16752;53.364;-1.488;2022-11-27T03:22:24;99808.88;;;19.66;50.13
29879;BME280;16752;53.364;-1.488;2022-11-27T03:24:53;99804.69;;;19.32;50.47
29879;BME280;16752;53.364;-1.488;2022-11-27T03:27:23;99757.81;;;18.76;51.04
29879;BME280;16752;53.364;-1.488;2022-11-27T03:29:59;99774.03;;;19.13;50.15
29879;BME280;16752;53.364;-1.488;2022-11-27T03:32:30;99795.44;;;19.04;50.75
29879;BME280;16752;53.364;-1.488;2022-11-27T03:35:07;99708.88;;;18.62;50.44
29879;BME280;16752;53.364;-1.488;2022-11-27T03:37:37;99731.13;;;18.37;51.59
29879;BME280;16752;53.364;-1.488;2022-11-27T03:40:38;99812.47;;;19.81;49.01
29879;BME280;16752;53.364;-1.488;2022-11-27T03:46:42;99845.56;;;18.99;50.77
29879;BME280;16752;53.364;-1.488;2022-11-27T03:53:15;99850.84;;;19.15;49.98
29879;BME280;16752;53.364;-1.488;2022-11-27T03:59:00;99810.06;;;18.91;49.62
29879;BME280;16752;53.364;-1.488;2022-11-27T04:05:49;99784.34;;;18.35;50.33
29879;BME280;16752;53.364;-1.488;2022-11-27T04:19:38;99862.09;;;19.25;48.82
29879;BME280;16752;53.364;-1.488;2022-11-27T04:22:06;99748.06;;;18.44;49.15
29879;BME280;16752;53.364;-1.488;2022-11-27T04:32:12;99851.84;;;18.81;48.75
29879;BME280;16752;53.364;-1.488;2022-11-27T04:34:47;99890.97;;;19.28;48.22
29879;BME280;16752;53.364;-1.488;2022-11-27T04:37:45;99763.78;;;18.53;47.66
29879;BME280;16752;53.364;-1.488;2022-11-27T04:40:15;99768.44;;;18.51;48.06
29879;BME280;16752;53.364;-1.488;2022-11-27T04:42:43;99808.56;;;18.65;48.35
29879;BME280;16752;53.364;-1.488;2022-11-27T04:45:35;99819.38;;;18.71;48.36
29879;BME280;16752;53.364;-1.488;2022-11-27T04:49:01;99845.03;;;19.03;47.60
29879;BME280;16752;53.364;-1.488;2022-11-27T04:51:35;99831.13;;;18.93;47.97
29879;BME280;16752;53.364;-1.488;2022-11-27T04:54:24;99867.09;;;19.04;47.68
29879;BME280;16752;53.364;-1.488;2022-11-27T04:56:55;99752.69;;;18.33;47.88
29879;BME280;16752;53.364;-1.488;2022-11-27T05:00:06;99844.75;;;18.90;47.52
29879;BME280;16752;53.364;-1.488;2022-11-27T05:03:05;99778.72;;;18.46;47.63
29879;BME280;16752;53.364;-1.488;2022-11-27T05:05:44;99816.00;;;18.61;47.12
29879;BME280;16752;53.364;-1.488;2022-11-27T05:09:04;99818.66;;;18.37;47.56
29879;BME280;16752;53.364;-1.488;2022-11-27T05:11:53;99903.78;;;18.84;47.34
29879;BME280;16752;53.364;-1.488;2022-11-27T05:14:34;99927.16;;;18.72;47.41
29879;BME280;16752;53.364;-1.488;2022-11-27T05:17:38;99899.91;;;18.46;47.68
29879;BME280;16752;53.364;-1.488;2022-11-27T05:20:11;99837.91;;;17.88;47.89
29879;BME280;16752;53.364;-1.488;2022-11-27T05:22:47;99790.28;;;17.62;47.79
29879;BME280;16752;53.364;-1.488;2022-11-27T05:25:39;99794.84;;;17.52;48.41
29879;BME280;16752;53.364;-1.488;2022-11-27T05:28:26;99787.16;;;17.33;48.55
29879;BME280;16752;53.364;-1.488;2022-11-27T05:30:54;99829.97;;;17.54;48.86
29879;BME280;16752;53.364;-1.488;2022-11-27T05:33:22;99822.16;;;17.53;48.45
29879;BME280;16752;53.364;-1.488;2022-11-27T05:35:48;99809.09;;;17.51;47.94
29879;BME280;16752;53.364;-1.488;2022-11-27T05:38:47;99877.09;;;17.68;48.71
29879;BME280;16752;53.364;-1.488;2022-11-27T05:41:12;99799.72;;;17.65;48.07
29879;BME280;16752;53.364;-1.488;2022-11-27T05:43:48;99794.63;;;17.71;47.86
29879;BME280;16752;53.364;-1.488;2022-11-27T05:46:27;99929.78;;;18.64;47.49
29879;BME280;16752;53.364;-1.488;2022-11-27T05:49:00;99883.63;;;18.32;47.42
29879;BME280;16752;53.364;-1.488;2022-11-27T05:54:59;99812.19;;;17.73;47.51
29879;BME280;16752;53.364;-1.488;2022-11-27T05:57:51;99818.97;;;17.75;47.12
29879;BME280;16752;53.364;-1.488;2022-11-27T06:00:50;99935.31;;;18.28;47.49
29879;BME280;16752;53.364;-1.488;2022-11-27T06:03:52;99906.75;;;18.14;47.43
29879;BME280;16752;53.364;-1.488;2022-11-27T06:06:32;99958.53;;;18.43;47.59
29879;BME280;16752;53.364;-1.488;2022-11-27T06:09:23;99830.69;;;17.64;47.42
29879;BME280;16752;53.364;-1.488;2022-11-27T06:12:06;99910.81;;;17.92;47.70
29879;BME280;16752;53.364;-1.488;2022-11-27T06:14:36;99832.75;;;17.53;47.89
29879;BME280;16752;53.364;-1.488;2022-11-27T06:17:10;99909.38;;;18.06;47.77
29879;BME280;16752;53.364;-1.488;2022-11-27T06:20:15;99965.22;;;18.05;48.19
29879;BME280;16752;53.364;-1.488;2022-11-27T06:22:55;99987.53;;;18.28;47.48
29879;BME280;16752;53.364;-1.488;2022-11-27T06:25:46;99920.56;;;17.58;47.97
29879;BME280;16752;53.364;-1.488;2022-11-27T06:28:31;99894.78;;;17.68;47.59
29879;BME280;16752;53.364;-1.488;2022-11-27T06:31:39;99892.97;;;17.68;47.51
29879;BME280;16752;53.364;-1.488;2022-11-27T06:37:42;99807.78;;;17.21;47.63
29879;BME280;16752;53.364;-1.488;2022-11-27T06:40:18;99892.28;;;17.66;47.59
29879;BME280;16752;53.364;-1.488;2022-11-27T06:42:44;99888.97;;;17.64;47.75
29879;BME280;16752;53.364;-1.488;2022-11-27T06:45:24;99882.84;;;17.64;47.78
29879;BME280;16752;53.364;-1.488;2022-11-27T06:48:28;99821.94;;;17.38;47.41
29879;BME280;16752;53.364;-1.488;2022-11-27T06:51:06;99853.41;;;17.41;47.53
29879;BME280;16752;53.364;-1.488;2022-11-27T06:53:42;99928.16;;;17.79;47.74
29879;BME280;16752;53.364;-1.488;2022-11-27T06:56:25;99965.00;;;17.98;48.03
29879;BME280;16752;53.364;-1.488;2022-11-27T06:59:24;99959.41;;;18.01;47.47
29879;BME280;16752;53.364;-1.488;2022-11-27T07:02:19;99966.19;;;18.04;47.60
29879;BME280;16752;53.364;-1.488;2022-11-27T07:05:00;99849.63;;;17.18;47.57
29879;BME280;16752;53.364;-1.488;2022-11-27T07:07:35;99987.84;;;17.99;47.59
29879;BME280;16752;53.364;-1.488;2022-11-27T07:10:13;99938.00;;;17.68;47.70
29879;BME280;16752;53.364;-1.488;2022-11-27T07:13:07;99899.97;;;17.52;47.59
29879;BME280;16752;53.364;-1.488;2022-11-27T07:18:33;99909.88;;;17.67;47.65
29879;BME280;16752;53.364;-1.488;2022-11-27T07:21:20;99968.13;;;17.67;48.26
29879;BME280;16752;53.364;-1.488;2022-11-27T07:27:25;99968.59;;;17.89;47.49
29879;BME280;16752;53.364;-1.488;2022-11-27T07:30:05;99910.03;;;17.48;47.95
29879;BME280;16752;53.364;-1.488;2022-11-27T07:32:44;99873.88;;;16.87;48.46
29879;BME280;16752;53.364;-1.488;2022-11-27T07:36:13;99826.31;;;16.95;47.65
29879;BME280;16752;53.364;-1.488;2022-11-27T07:42:30;99962.88;;;17.76;47.60
29879;BME280;16752;53.364;-1.488;2022-11-27T07:45:38;99911.91;;;17.30;47.53
29879;BME280;16752;53.364;-1.488;2022-11-27T07:48:33;99933.31;;;17.36;47.45
29879;BME280;16752;53.364;-1.488;2022-11-27T07:51:08;99991.00;;;17.68;47.50
29879;BME280;16752;53.364;-1.488;2022-11-27T07:56:51;99878.56;;;16.75;47.85
29879;BME280;16752;53.364;-1.488;2022-11-27T08:02:07;99906.91;;;17.01;48.61
29879;BME280;16752;53.364;-1.488;2022-11-27T08:04:44;99886.25;;;17.04;47.74
29879;BME280;16752;53.364;-1.488;2022-11-27T08:07:25;99911.91;;;17.30;47.93
29879;BME280;16752;53.364;-1.488;2022-11-27T08:09:51;99874.94;;;16.94;48.05
29879;BME280;16752;53.364;-1.488;2022-11-27T08:12:22;99887.44;;;17.10;48.19
29879;BME280;16752;53.364;-1.488;2022-11-27T08:14:48;99868.63;;;16.42;49.52
29879;BME280;16752;53.364;-1.488;2022-11-27T08:17:14;99963.63;;;17.42;48.26
29879;BME280;16752;53.364;-1.488;2022-11-27T08:19:40;99937.97;;;17.17;48.92
29879;BME280;16752;53.364;-1.488;2022-11-27T08:22:11;99886.66;;;16.92;48.34
29879;BME280;16752;53.364;-1.488;2022-11-27T08:24:37;99897.25;;;16.01;49.82
29879;BME280;16752;53.364;-1.488;2022-11-27T08:27:03;99886.00;;;16.72;48.57
29879;BME280;16752;53.364;-1.488;2022-11-27T08:29:29;99861.63;;;15.87;49.54
29879;BME280;16752;53.364;-1.488;2022-11-27T08:31:54;99946.53;;;16.75;48.89
29879;BME280;16752;53.364;-1.488;2022-11-27T08:34:20;99886.50;;;16.93;46.84
29879;BME280;16752;53.364;-1.488;2022-11-27T08:36:45;99937.78;;;17.62;47.26
29879;BME280;16752;53.364;-1.488;2022-11-27T08:39:11;99889.31;;;16.74;47.65
29879;BME280;16752;53.364;-1.488;2022-11-27T08:41:37;99943.31;;;17.68;46.63
29879;BME280;16752;53.364;-1.488;2022-11-27T08:44:03;99972.88;;;16.67;48.54
29879;BME280;16752;53.364;-1.488;2022-11-27T08:46:29;99962.53;;;17.27;47.79
29879;BME280;16752;53.364;-1.488;2022-11-27T08:48:55;99906.41;;;17.49;46.36
29879;BME280;16752;53.364;-1.488;2022-11-27T08:51:21;99933.28;;;17.80;46.20
29879;BME280;16752;53.364;-1.488;2022-11-27T08:53:46;99883.72;;;16.77;47.73
29879;BME280;16752;53.364;-1.488;2022-11-27T08:56:17;100002.00;;;18.08;46.23
29879;BME280;16752;53.364;-1.488;2022-11-27T08:58:44;99974.88;;;17.88;46.84
29879;BME280;16752;53.364;-1.488;2022-11-27T09:01:13;99946.94;;;17.67;46.60
29879;BME280;16752;53.364;-1.488;2022-11-27T09:03:40;99994.72;;;16.87;48.71
29879;BME280;16752;53.364;-1.488;2022-11-27T09:06:10;99889.06;;;17.55;46.02
29879;BME280;16752;53.364;-1.488;2022-11-27T09:08:37;99875.47;;;17.50;46.27
29879;BME280;16752;53.364;-1.488;2022-11-27T09:11:04;99836.13;;;17.03;46.55
29879;BME280;16752;53.364;-1.488;2022-11-27T09:13:30;99863.00;;;17.42;45.98
29879;BME280;16752;53.364;-1.488;2022-11-27T09:15:56;99916.13;;;16.79;47.74
29879;BME280;16752;53.364;-1.488;2022-11-27T09:18:23;99949.22;;;17.62;46.67
29879;BME280;16752;53.364;-1.488;2022-11-27T09:20:57;99828.47;;;16.74;47.21
29879;BME280;16752;53.364;-1.488;2022-11-27T09:23:22;99970.16;;;17.56;47.17
29879;BME280;16752;53.364;-1.488;2022-11-27T09:25:51;99830.19;;;17.35;45.90
29879;BME280;16752;53.364;-1.488;2022-11-27T09:28:17;99891.34;;;16.80;47.82
29879;BME280;16752;53.364;-1.488;2022-11-27T09:30:43;99872.44;;;16.93;47.16
29879;BME280;16752;53.364;-1.488;2022-11-27T09:33:09;99834.94;;;16.62;47.49
29879;BME280;16752;53.364;-1.488;2022-11-27T09:35:36;99857.31;;;16.67;47.64
29879;BME280;16752;53.364;-1.488;2022-11-27T09:38:02;99884.28;;;17.06;47.65
29879;BME280;16752;53.364;-1.488;2022-11-27T09:40:28;99836.81;;;17.65;45.55
29879;BME280;16752;53.364;-1.488;2022-11-27T09:42:58;99929.34;;;17.92;46.54
29879;BME280;16752;53.364;-1.488;2022-11-27T09:45:27;99911.88;;;18.08;45.90
29879;BME280;16752;53.364;-1.488;2022-11-27T09:48:00;99927.69;;;17.65;46.66
29879;BME280;16752;53.364;-1.488;2022-11-27T09:50:36;99883.56;;;18.16;44.89
29879;BME280;16752;53.364;-1.488;2022-11-27T09:55:41;99948.38;;;18.80;45.04
29879;BME280;16752;53.364;-1.488;2022-11-27T10:00:48;99840.72;;;17.87;44.93
29879;BME280;16752;53.364;-1.488;2022-11-27T10:03:16;99983.09;;;18.95;45.17
29879;BME280;16752;53.364;-1.488;2022-11-27T10:06:02;99907.84;;;18.54;44.68
29879;BME280;16752;53.364;-1.488;2022-11-27T10:09:07;99975.63;;;18.99;45.21
29879;BME280;16752;53.364;-1.488;2022-11-27T10:22:59;99995.25;;;19.63;44.54
29879;BME280;16752;53.364;-1.488;2022-11-27T10:25:44;100002.53;;;19.20;44.44
29879;BME280;16752;53.364;-1.488;2022-11-27T10:28:35;99989.25;;;19.36;43.90
29879;BME280;16752;53.364;-1.488;2022-11-27T10:34:24;99926.38;;;18.38;44.69
29879;BME280;16752;53.364;-1.488;2022-11-27T10:36:52;99971.63;;;19.51;43.69
29879;BME280;16752;53.364;-1.488;2022-11-27T10:39:31;99992.50;;;18.81;44.89
29879;BME280;16752;53.364;-1.488;2022-11-27T10:42:20;99901.28;;;18.99;44.12
29879;BME280;16752;53.364;-1.488;2022-11-27T10:44:52;99883.88;;;19.04;43.65
29879;BME280;16752;53.364;-1.488;2022-11-27T10:47:20;99818.97;;;18.25;44.63
29879;BME280;16752;53.364;-1.488;2022-11-27T10:49:47;99922.22;;;19.10;43.62
29879;BME280;16752;53.364;-1.488;2022-11-27T10:52:16;99839.63;;;18.06;44.92
29879;BME280;16752;53.364;-1.488;2022-11-27T10:54:48;99888.03;;;18.74;44.12
29879;BME280;16752;53.364;-1.488;2022-11-27T11:00:02;99962.53;;;19.38;44.32
29879;BME280;16752;53.364;-1.488;2022-11-27T11:03:00;99972.47;;;18.87;44.45
29879;BME280;16752;53.364;-1.488;2022-11-27T11:05:59;99860.16;;;18.70;43.85
29879;BME280;16752;53.364;-1.488;2022-11-27T11:08:25;99892.28;;;18.51;44.55
29879;BME280;16752;53.364;-1.488;2022-11-27T11:10:59;99888.84;;;18.75;43.67
29879;BME280;16752;53.364;-1.488;2022-11-27T11:16:06;99964.69;;;19.18;44.23
29879;BME280;16752;53.364;-1.488;2022-11-27T11:18:48;99874.38;;;19.26;43.05
29879;BME280;16752;53.364;-1.488;2022-11-27T11:21:18;99900.44;;;19.55;43.24
29879;BME280;16752;53.364;-1.488;2022-11-27T11:23:56;99949.41;;;19.28;43.64
29879;BME280;16752;53.364;-1.488;2022-11-27T11:28:53;99932.97;;;19.08;44.15
29879;BME280;16752;53.364;-1.488;2022-11-27T11:31:29;99826.28;;;19.13;43.20
29879;BME280;16752;53.364;-1.488;2022-11-27T11:34:28;99855.34;;;17.99;45.15
29879;BME280;16752;53.364;-1.488;2022-11-27T11:37:04;99891.34;;;18.92;44.01
29879;BME280;16752;53.364;-1.488;2022-11-27T11:39:33;99852.19;;;19.11;42.89
29879;BME280;16752;53.364;-1.488;2022-11-27T11:42:07;99900.63;;;19.93;42.49
29879;BME280;16752;53.364;-1.488;2022-11-27T11:44:38;99788.47;;;18.62;43.33
29879;BME280;16752;53.364;-1.488;2022-11-27T11:47:15;99778.91;;;18.69;43.81
29879;BME280;16752;53.364;-1.488;2022-11-27T11:49:41;99811.38;;;18.96;43.32
29879;BME280;16752;53.364;-1.488;2022-11-27T11:55:16;99828.88;;;19.29;42.86
29879;BME280;16752;53.364;-1.488;2022-11-27T11:58:04;99823.28;;;19.16;42.76
29879;BME280;16752;53.364;-1.488;2022-11-27T12:01:17;99779.84;;;18.19;43.60
29879;BME280;16752;53.364;-1.488;2022-11-27T12:04:05;99769.41;;;18.83;43.19
29879;BME280;16752;53.364;-1.488;2022-11-27T12:06:52;99841.06;;;19.71;42.03
29879;BME280;16752;53.364;-1.488;2022-11-27T12:09:43;99897.25;;;20.38;41.66
29879;BME280;16752;53.364;-1.488;2022-11-27T12:18:31;99899.13;;;19.02;44.15
29879;BME280;16752;53.364;-1.488;2022-11-27T12:21:13;99876.22;;;19.26;43.57
29879;BME280;16752;53.364;-1.488;2022-11-27T12:29:23;99885.28;;;19.64;42.85
29879;BME280;16752;53.364;-1.488;2022-11-27T12:43:47;99804.06;;;18.57;44.13
29879;BME280;16752;53.364;-1.488;2022-11-27T12:46:27;99884.97;;;19.59;43.50
29879;BME280;16752;53.364;-1.488;2022-11-27T12:49:33;99887.75;;;18.35;45.40
29879;BME280;16752;53.364;-1.488;2022-11-27T12:52:33;99861.00;;;18.71;44.54
29879;BME280;16752;53.364;-1.488;2022-11-27T12:55:32;99851.72;;;18.91;43.90
29879;BME280;16752;53.364;-1.488;2022-11-27T12:58:40;99859.66;;;18.99;43.75
29879;BME280;16752;53.364;-1.488;2022-11-27T13:01:34;99790.75;;;19.22;42.49
29879;BME280;16752;53.364;-1.488;2022-11-27T13:10:48;99767.22;;;19.89;40.93
29879;BME280;16752;53.364;-1.488;2022-11-27T13:13:41;99859.09;;;20.00;41.97
29879;BME280;16752;53.364;-1.488;2022-11-27T13:19:48;99764.94;;;18.83;42.95
29879;BME280;16752;53.364;-1.488;2022-11-27T13:22:25;99758.78;;;18.99;42.35
29879;BME280;16752;53.364;-1.488;2022-11-27T13:24:54;99717.66;;;18.95;42.36
29879;BME280;16752;53.364;-1.488;2022-11-27T13:27:25;99794.41;;;19.21;41.93
29879;BME280;16752;53.364;-1.488;2022-11-27T13:29:58;99696.81;;;18.19;42.89
29879;BME280;16752;53.364;-1.488;2022-11-27T13:32:28;99814.28;;;19.33;42.44
29879;BME280;16752;53.364;-1.488;2022-11-27T13:34:59;99827.97;;;18.73;43.33
29879;BME280;16752;53.364;-1.488;2022-11-27T13:37:38;99764.56;;;17.89;44.79
29879;BME280;16752;53.364;-1.488;2022-11-27T13:40:15;99687.19;;;18.58;42.88
29879;BME280;16752;53.364;-1.488;2022-11-27T13:42:55;99769.41;;;18.10;44.37
29879;BME280;16752;53.364;-1.488;2022-11-27T13:45:28;99770.28;;;18.67;43.42
29879;BME280;16752;53.364;-1.488;2022-11-27T13:48:41;99804.94;;;18.66;43.60
29879;BME280;16752;53.364;-1.488;2022-11-27T13:51:30;99660.88;;;17.84;43.30
29879;BME280;16752;53.364;-1.488;2022-11-27T13:54:11;99796.38;;;19.27;41.86
29879;BME280;16752;53.364;-1.488;2022-11-27T14:01:16;99713.06;;;18.48;42.44
29879;BME280;16752;53.364;-1.488;2022-11-27T14:39:50;99655.19;;;18.68;43.00
29879;BME280;16752;53.364;-1.488;2022-11-27T14:46:53;99791.47;;;19.00;43.47
29879;BME280;16752;53.364;-1.488;2022-11-27T14:49:31;99742.25;;;18.48;43.93
29879;BME280;16752;53.364;-1.488;2022-11-27T14:56:50;99631.50;;;18.67;42.60
29879;BME280;16752;53.364;-1.488;2022-11-27T15:41:15;99667.84;;;18.17;44.40
29879;BME280;16752;53.364;-1.488;2022-11-27T15:44:17;99660.72;;;18.10;44.77
29879;BME280;16752;53.364;-1.488;2022-11-27T15:46:55;99631.56;;;17.85;44.52
29879;BME280;16752;53.364;-1.488;2022-11-27T15:49:24;99624.44;;;17.78;44.77
29879;BME280;16752;53.364;-1.488;2022-11-27T15:51:54;99712.25;;;18.23;45.04
29879;BME280;16752;53.364;-1.488;2022-11-27T15:54:27;99704.94;;;18.17;45.43
29879;BME280;16752;53.364;-1.488;2022-11-27T15:56:58;99641.78;;;17.64;44.93
29879;BME280;16752;53.364;-1.488;2022-11-27T15:59:28;99664.66;;;17.73;45.11
29879;BME280;16752;53.364;-1.488;2022-11-27T16:01:54;99640.75;;;17.49;45.50
29879;BME280;16752;53.364;-1.488;2022-11-27T16:04:21;99640.25;;;17.37;45.55
29879;BME280;16752;53.364;-1.488;2022-11-27T16:06:47;99693.44;;;17.60;45.46
29879;BME280;16752;53.364;-1.488;2022-11-27T16:09:14;99662.44;;;17.36;45.31
29879;BME280;16752;53.364;-1.488;2022-11-27T16:11:41;99661.94;;;17.40;45.49
29879;BME280;16752;53.364;-1.488;2022-11-27T16:14:07;99699.19;;;17.55;45.44
29879;BME280;16752;53.364;-1.488;2022-11-27T16:16:35;99634.19;;;17.10;45.61
29879;BME280;16752;53.364;-1.488;2022-11-27T16:19:02;99586.16;;;16.81;45.45
29879;BME280;16752;53.364;-1.488;2022-11-27T16:21:33;99641.31;;;17.10;45.36
29879;BME280;16752;53.364;-1.488;2022-11-27T16:24:12;99727.38;;;17.64;45.69
29879;BME280;16752;53.364;-1.488;2022-11-27T16:27:04;99672.13;;;17.19;45.41
29879;BME280;16752;53.364;-1.488;2022-11-27T16:30:05;99638.31;;;17.05;45.63
29879;BME280;16752;53.364;-1.488;2022-11-27T16:36:27;99720.03;;;17.50;45.68
29879;BME280;16752;53.364;-1.488;2022-11-27T16:50:12;99578.56;;;16.52;45.71
29879;BME280;16752;53.364;-1.488;2022-11-27T16:53:30;99622.31;;;16.72;45.76
29879;BME280;16752;53.364;-1.488;2022-11-27T17:14:32;99552.84;;;16.28;45.96
29879;BME280;16752;53.364;-1.488;2022-11-27T17:17:18;99661.16;;;16.72;46.78
29879;BME280;16752;53.364;-1.488;2022-11-27T17:32:21;99588.09;;;16.71;46.21
29879;BME280;16752;53.364;-1.488;2022-11-27T17:43:58;99515.06;;;16.10;46.10
29879;BME280;16752;53.364;-1.488;2022-11-27T17:50:08;99620.34;;;16.74;46.13
29879;BME280;16752;53.364;-1.488;2022-11-27T17:56:11;99622.63;;;16.69;46.13
29879;BME280;16752;53.364;-1.488;2022-11-27T17:59:50;99439.44;;;15.57;46.30
29879;BME280;16752;53.364;-1.488;2022-11-27T18:10:42;99496.19;;;16.05;46.41
29879;BME280;16752;53.364;-1.488;2022-11-27T18:24:20;99511.94;;;16.14;46.26
29879;BME280;16752;53.364;-1.488;2022-11-27T18:26:48;99433.59;;;15.63;46.32
29879;BME280;16752;53.364;-1.488;2022-11-27T18:29:28;99569.97;;;16.50;46.38
29879;BME280;16752;53.364;-1.488;2022-11-27T18:31:54;99523.84;;;16.18;46.58
29879;BME280;16752;53.364;-1.488;2022-11-27T18:34:24;99484.94;;;15.95;46.61
29879;BME280;16752;53.364;-1.488;2022-11-27T18:36:50;99560.16;;;16.42;46.62
29879;BME280;16752;53.364;-1.488;2022-11-27T18:39:25;99580.22;;;16.53;46.51
29879;BME280;16752;53.364;-1.488;2022-11-27T18:41:51;99490.16;;;15.86;46.79
29879;BME280;16752;53.364;-1.488;2022-11-27T18:44:20;99436.50;;;15.60;46.27
29879;BME280;16752;53.364;-1.488;2022-11-27T18:46:46;99504.44;;;16.02;46.61
29879;BME280;16752;53.364;-1.488;2022-11-27T18:49:14;99569.03;;;16.33;46.79
29879;BME280;16752;53.364;-1.488;2022-11-27T18:51:40;99496.66;;;16.00;46.58
29879;BME280;16752;53.364;-1.488;2022-11-27T18:54:06;99425.44;;;14.95;48.17
29879;BME280;16752;53.364;-1.488;2022-11-27T18:56:31;99441.50;;;15.63;47.08